Terminal Aerodrome Forecast
Issued by NWS

Home | Current Version | Previous Version | Text Only | Print | Product List | Glossary On
Versions: 1 2 3 4 5 6 7 8 9 10 11 12
903
FTUS44 KJAN 241120
TAFGTR
TAF
KGTR 241120Z 2412/2512 15013G24KT P6SM BKN025 BKN050
     FM241900 16016G25KT P6SM BKN050
     FM250500 16014G25KT P6SM BKN025 BKN250
     FM251000 16014G23KT P6SM VCTS BKN015CB BKN025=

USA.gov is the U.S. government's official web portal to all federal, state and local government web resources and services.